Warrington, United Kingdom
Current Conditions -  °F | °C
As of 5:20 PM on Tuesday 21 Oct 2014 (Local Time) from EGGP Reporting Station
Rain Showers Rain Showers  
Wind Chill:   Ceiling: Unl
Heat Index:   Visibility: 6mi
Dew Point:   Wind: 28mph
Humidity: 71%   Direction: 300°WNW
Pressure: 29.88"   Gusts: 45mph
Location:  53.39°N, 2.59°W
Report Text: EGGP 211620Z 30024G39KT 9000 -SHRA FEW025 SCT030 09/04 Q1012
Loading
Personal Weather Stations






























Interactive Weather Map
Tropical Storm Tracking
New forecast layout! Learn more

10-Day Weather Forecast

Advertisements
Track Severe Weather on mobile